sensor_id;sensor_type;location;lat;lon;timestamp;P1;durP1;ratioP1;P2;durP2;ratioP2
46391;SDS011;32098;49.448;7.904;2023-04-03T00:00:55;3.13;;;2.83;;
46391;SDS011;32098;49.448;7.904;2023-04-03T00:03:22;3.60;;;2.90;;
46391;SDS011;32098;49.448;7.904;2023-04-03T00:05:49;3.67;;;2.97;;
46391;SDS011;32098;49.448;7.904;2023-04-03T00:08:16;3.20;;;2.90;;
46391;SDS011;32098;49.448;7.904;2023-04-03T00:10:44;4.27;;;2.83;;
46391;SDS011;32098;49.448;7.904;2023-04-03T00:13:10;4.33;;;2.73;;
46391;SDS011;32098;49.448;7.904;2023-04-03T00:15:37;3.07;;;2.77;;
46391;SDS011;32098;49.448;7.904;2023-04-03T00:18:04;2.33;;;2.13;;
46391;SDS011;32098;49.448;7.904;2023-04-03T00:20:32;3.47;;;2.47;;
46391;SDS011;32098;49.448;7.904;2023-04-03T00:23:00;4.70;;;3.20;;
46391;SDS011;32098;49.448;7.904;2023-04-03T00:25:28;3.63;;;2.90;;
46391;SDS011;32098;49.448;7.904;2023-04-03T00:27:55;3.60;;;2.80;;
46391;SDS011;32098;49.448;7.904;2023-04-03T00:30:21;5.77;;;2.77;;
46391;SDS011;32098;49.448;7.904;2023-04-03T00:32:49;3.20;;;2.60;;
46391;SDS011;32098;49.448;7.904;2023-04-03T00:35:16;2.63;;;2.37;;
46391;SDS011;32098;49.448;7.904;2023-04-03T00:37:44;6.20;;;2.40;;
46391;SDS011;32098;49.448;7.904;2023-04-03T00:40:13;2.80;;;2.50;;
46391;SDS011;32098;49.448;7.904;2023-04-03T00:42:41;3.97;;;2.60;;
46391;SDS011;32098;49.448;7.904;2023-04-03T00:45:23;3.37;;;2.50;;
46391;SDS011;32098;49.448;7.904;2023-04-03T00:47:50;3.53;;;2.67;;
46391;SDS011;32098;49.448;7.904;2023-04-03T00:50:17;4.23;;;3.00;;
46391;SDS011;32098;49.448;7.904;2023-04-03T00:52:46;2.97;;;2.67;;
46391;SDS011;32098;49.448;7.904;2023-04-03T00:55:15;4.57;;;3.10;;
46391;SDS011;32098;49.448;7.904;2023-04-03T00:57:43;4.13;;;2.97;;
46391;SDS011;32098;49.448;7.904;2023-04-03T01:00:13;2.73;;;2.30;;
46391;SDS011;32098;49.448;7.904;2023-04-03T01:02:43;3.00;;;2.70;;
46391;SDS011;32098;49.448;7.904;2023-04-03T01:05:13;3.00;;;2.47;;
46391;SDS011;32098;49.448;7.904;2023-04-03T01:07:43;3.53;;;2.87;;
46391;SDS011;32098;49.448;7.904;2023-04-03T01:10:12;3.70;;;2.60;;
46391;SDS011;32098;49.448;7.904;2023-04-03T01:12:42;5.20;;;2.80;;
46391;SDS011;32098;49.448;7.904;2023-04-03T01:15:17;4.93;;;3.00;;
46391;SDS011;32098;49.448;7.904;2023-04-03T01:17:56;6.53;;;2.83;;
46391;SDS011;32098;49.448;7.904;2023-04-03T01:25:38;4.33;;;2.73;;
46391;SDS011;32098;49.448;7.904;2023-04-03T01:28:11;6.23;;;2.87;;
46391;SDS011;32098;49.448;7.904;2023-04-03T01:33:34;3.10;;;2.80;;
46391;SDS011;32098;49.448;7.904;2023-04-03T01:36:02;3.80;;;2.80;;
46391;SDS011;32098;49.448;7.904;2023-04-03T01:38:30;4.30;;;2.93;;
46391;SDS011;32098;49.448;7.904;2023-04-03T01:40:57;3.23;;;2.60;;
46391;SDS011;32098;49.448;7.904;2023-04-03T01:43:24;5.73;;;3.57;;
46391;SDS011;32098;49.448;7.904;2023-04-03T01:45:50;6.87;;;3.67;;
46391;SDS011;32098;49.448;7.904;2023-04-03T01:48:19;5.07;;;3.60;;
46391;SDS011;32098;49.448;7.904;2023-04-03T01:50:47;3.87;;;3.10;;
46391;SDS011;32098;49.448;7.904;2023-04-03T01:53:15;3.90;;;3.50;;
46391;SDS011;32098;49.448;7.904;2023-04-03T01:55:42;4.20;;;2.73;;
46391;SDS011;32098;49.448;7.904;2023-04-03T01:58:09;4.37;;;3.67;;
46391;SDS011;32098;49.448;7.904;2023-04-03T02:00:36;3.83;;;3.27;;
46391;SDS011;32098;49.448;7.904;2023-04-03T02:03:04;4.40;;;3.67;;
46391;SDS011;32098;49.448;7.904;2023-04-03T02:05:31;5.83;;;3.90;;
46391;SDS011;32098;49.448;7.904;2023-04-03T02:07:59;5.07;;;3.30;;
46391;SDS011;32098;49.448;7.904;2023-04-03T02:10:27;5.43;;;3.20;;
46391;SDS011;32098;49.448;7.904;2023-04-03T02:12:55;4.47;;;3.70;;
46391;SDS011;32098;49.448;7.904;2023-04-03T02:15:22;5.07;;;3.10;;
46391;SDS011;32098;49.448;7.904;2023-04-03T02:17:49;4.93;;;3.30;;
46391;SDS011;32098;49.448;7.904;2023-04-03T02:20:15;5.30;;;3.70;;
46391;SDS011;32098;49.448;7.904;2023-04-03T02:22:42;4.03;;;3.00;;
46391;SDS011;32098;49.448;7.904;2023-04-03T02:25:09;4.13;;;3.40;;
46391;SDS011;32098;49.448;7.904;2023-04-03T02:27:36;5.37;;;3.57;;
46391;SDS011;32098;49.448;7.904;2023-04-03T02:30:03;3.97;;;3.03;;
46391;SDS011;32098;49.448;7.904;2023-04-03T02:32:32;6.27;;;3.40;;
46391;SDS011;32098;49.448;7.904;2023-04-03T02:34:59;4.33;;;3.27;;
46391;SDS011;32098;49.448;7.904;2023-04-03T02:37:27;5.93;;;3.27;;
46391;SDS011;32098;49.448;7.904;2023-04-03T02:39:53;5.07;;;3.37;;
46391;SDS011;32098;49.448;7.904;2023-04-03T02:42:20;3.90;;;2.90;;
46391;SDS011;32098;49.448;7.904;2023-04-03T02:44:47;4.20;;;3.20;;
46391;SDS011;32098;49.448;7.904;2023-04-03T02:47:13;4.47;;;3.47;;
46391;SDS011;32098;49.448;7.904;2023-04-03T02:49:40;5.33;;;3.10;;
46391;SDS011;32098;49.448;7.904;2023-04-03T02:52:06;4.60;;;3.40;;
46391;SDS011;32098;49.448;7.904;2023-04-03T02:54:33;4.50;;;2.87;;
46391;SDS011;32098;49.448;7.904;2023-04-03T02:57:03;5.07;;;3.07;;
46391;SDS011;32098;49.448;7.904;2023-04-03T02:59:30;4.53;;;3.00;;
46391;SDS011;32098;49.448;7.904;2023-04-03T03:01:57;5.03;;;2.83;;
46391;SDS011;32098;49.448;7.904;2023-04-03T03:04:23;4.63;;;3.10;;
46391;SDS011;32098;49.448;7.904;2023-04-03T03:06:50;4.40;;;3.00;;
46391;SDS011;32098;49.448;7.904;2023-04-03T03:09:17;5.23;;;3.00;;
46391;SDS011;32098;49.448;7.904;2023-04-03T03:11:43;3.63;;;2.53;;
46391;SDS011;32098;49.448;7.904;2023-04-03T03:14:10;3.67;;;2.50;;
46391;SDS011;32098;49.448;7.904;2023-04-03T03:16:36;2.57;;;2.37;;
46391;SDS011;32098;49.448;7.904;2023-04-03T03:19:03;3.07;;;2.70;;
46391;SDS011;32098;49.448;7.904;2023-04-03T03:21:30;3.47;;;2.60;;
46391;SDS011;32098;49.448;7.904;2023-04-03T03:23:57;5.40;;;3.00;;
46391;SDS011;32098;49.448;7.904;2023-04-03T03:26:23;3.87;;;2.77;;
46391;SDS011;32098;49.448;7.904;2023-04-03T03:28:51;3.60;;;2.70;;
46391;SDS011;32098;49.448;7.904;2023-04-03T03:31:17;4.17;;;2.70;;
46391;SDS011;32098;49.448;7.904;2023-04-03T03:33:44;4.23;;;2.30;;
46391;SDS011;32098;49.448;7.904;2023-04-03T03:36:11;2.97;;;2.30;;
46391;SDS011;32098;49.448;7.904;2023-04-03T03:38:38;6.33;;;2.57;;
46391;SDS011;32098;49.448;7.904;2023-04-03T03:41:05;3.20;;;2.90;;
46391;SDS011;32098;49.448;7.904;2023-04-03T03:43:34;4.27;;;2.73;;
46391;SDS011;32098;49.448;7.904;2023-04-03T03:46:05;3.33;;;2.50;;
46391;SDS011;32098;49.448;7.904;2023-04-03T03:48:32;4.30;;;3.03;;
46391;SDS011;32098;49.448;7.904;2023-04-03T03:50:58;3.70;;;2.47;;
46391;SDS011;32098;49.448;7.904;2023-04-03T03:53:29;4.43;;;2.63;;
46391;SDS011;32098;49.448;7.904;2023-04-03T03:56:01;4.73;;;2.50;;
46391;SDS011;32098;49.448;7.904;2023-04-03T03:58:29;4.70;;;2.33;;
46391;SDS011;32098;49.448;7.904;2023-04-03T04:00:56;3.60;;;2.53;;
46391;SDS011;32098;49.448;7.904;2023-04-03T04:03:23;3.87;;;2.53;;
46391;SDS011;32098;49.448;7.904;2023-04-03T04:05:50;5.03;;;3.13;;
46391;SDS011;32098;49.448;7.904;2023-04-03T04:08:17;5.17;;;2.60;;
46391;SDS011;32098;49.448;7.904;2023-04-03T04:10:45;3.17;;;2.63;;
46391;SDS011;32098;49.448;7.904;2023-04-03T04:13:15;4.07;;;2.70;;
46391;SDS011;32098;49.448;7.904;2023-04-03T04:15:43;4.43;;;2.60;;
46391;SDS011;32098;49.448;7.904;2023-04-03T04:18:11;3.50;;;2.77;;
46391;SDS011;32098;49.448;7.904;2023-04-03T04:20:41;3.37;;;2.60;;
46391;SDS011;32098;49.448;7.904;2023-04-03T04:23:08;3.50;;;2.47;;
46391;SDS011;32098;49.448;7.904;2023-04-03T04:25:36;3.80;;;2.63;;
46391;SDS011;32098;49.448;7.904;2023-04-03T04:28:04;4.47;;;2.40;;
46391;SDS011;32098;49.448;7.904;2023-04-03T04:30:31;3.87;;;2.80;;
46391;SDS011;32098;49.448;7.904;2023-04-03T04:32:58;5.03;;;2.43;;
46391;SDS011;32098;49.448;7.904;2023-04-03T04:35:26;5.13;;;2.60;;
46391;SDS011;32098;49.448;7.904;2023-04-03T04:37:52;4.10;;;2.60;;
46391;SDS011;32098;49.448;7.904;2023-04-03T04:40:20;3.83;;;2.40;;
46391;SDS011;32098;49.448;7.904;2023-04-03T04:42:47;5.40;;;2.77;;
46391;SDS011;32098;49.448;7.904;2023-04-03T04:45:15;3.27;;;2.60;;
46391;SDS011;32098;49.448;7.904;2023-04-03T04:47:44;3.90;;;2.20;;
46391;SDS011;32098;49.448;7.904;2023-04-03T04:50:11;3.07;;;2.10;;
46391;SDS011;32098;49.448;7.904;2023-04-03T04:52:40;4.00;;;2.47;;
46391;SDS011;32098;49.448;7.904;2023-04-03T04:55:08;3.57;;;2.57;;
46391;SDS011;32098;49.448;7.904;2023-04-03T04:57:35;4.40;;;2.43;;
46391;SDS011;32098;49.448;7.904;2023-04-03T05:00:04;3.30;;;2.27;;
46391;SDS011;32098;49.448;7.904;2023-04-03T05:02:31;3.30;;;2.47;;
46391;SDS011;32098;49.448;7.904;2023-04-03T05:04:58;4.90;;;2.63;;
46391;SDS011;32098;49.448;7.904;2023-04-03T05:07:27;5.03;;;2.67;;
46391;SDS011;32098;49.448;7.904;2023-04-03T05:09:56;5.30;;;2.40;;
46391;SDS011;32098;49.448;7.904;2023-04-03T05:12:23;4.33;;;2.63;;
46391;SDS011;32098;49.448;7.904;2023-04-03T05:14:54;2.83;;;2.37;;
46391;SDS011;32098;49.448;7.904;2023-04-03T05:17:21;4.63;;;2.63;;
46391;SDS011;32098;49.448;7.904;2023-04-03T05:19:53;2.90;;;2.60;;
46391;SDS011;32098;49.448;7.904;2023-04-03T05:22:21;4.07;;;2.27;;
46391;SDS011;32098;49.448;7.904;2023-04-03T05:24:50;2.57;;;2.37;;
46391;SDS011;32098;49.448;7.904;2023-04-03T05:27:19;3.37;;;2.53;;
46391;SDS011;32098;49.448;7.904;2023-04-03T05:29:50;3.03;;;2.20;;
46391;SDS011;32098;49.448;7.904;2023-04-03T05:32:21;3.63;;;2.50;;
46391;SDS011;32098;49.448;7.904;2023-04-03T05:34:57;5.63;;;2.73;;
46391;SDS011;32098;49.448;7.904;2023-04-03T05:37:26;3.87;;;2.90;;
46391;SDS011;32098;49.448;7.904;2023-04-03T05:39:54;3.53;;;2.70;;
46391;SDS011;32098;49.448;7.904;2023-04-03T05:42:21;4.70;;;2.50;;
46391;SDS011;32098;49.448;7.904;2023-04-03T05:44:48;5.53;;;2.83;;
46391;SDS011;32098;49.448;7.904;2023-04-03T05:47:16;4.33;;;2.77;;
46391;SDS011;32098;49.448;7.904;2023-04-03T05:49:44;4.03;;;2.70;;
46391;SDS011;32098;49.448;7.904;2023-04-03T05:52:20;5.77;;;3.30;;
46391;SDS011;32098;49.448;7.904;2023-04-03T05:54:51;5.30;;;3.40;;
46391;SDS011;32098;49.448;7.904;2023-04-03T05:57:24;4.70;;;2.90;;
46391;SDS011;32098;49.448;7.904;2023-04-03T05:59:50;5.60;;;3.20;;
46391;SDS011;32098;49.448;7.904;2023-04-03T06:02:20;3.87;;;3.43;;
46391;SDS011;32098;49.448;7.904;2023-04-03T06:04:48;6.00;;;3.10;;
46391;SDS011;32098;49.448;7.904;2023-04-03T06:07:17;6.60;;;3.20;;
46391;SDS011;32098;49.448;7.904;2023-04-03T06:09:48;4.67;;;3.00;;
46391;SDS011;32098;49.448;7.904;2023-04-03T06:12:17;4.13;;;2.47;;
46391;SDS011;32098;49.448;7.904;2023-04-03T06:14:44;6.03;;;2.63;;
46391;SDS011;32098;49.448;7.904;2023-04-03T06:17:14;5.40;;;3.00;;
46391;SDS011;32098;49.448;7.904;2023-04-03T06:19:42;9.07;;;3.00;;
46391;SDS011;32098;49.448;7.904;2023-04-03T06:22:08;4.87;;;3.10;;
46391;SDS011;32098;49.448;7.904;2023-04-03T06:24:35;7.03;;;3.10;;
46391;SDS011;32098;49.448;7.904;2023-04-03T06:27:03;3.67;;;2.80;;
46391;SDS011;32098;49.448;7.904;2023-04-03T06:29:30;6.30;;;3.10;;
46391;SDS011;32098;49.448;7.904;2023-04-03T06:31:57;6.60;;;3.07;;
46391;SDS011;32098;49.448;7.904;2023-04-03T06:34:24;4.27;;;3.17;;
46391;SDS011;32098;49.448;7.904;2023-04-03T06:36:51;6.43;;;3.23;;
46391;SDS011;32098;49.448;7.904;2023-04-03T06:39:19;5.80;;;3.07;;
46391;SDS011;32098;49.448;7.904;2023-04-03T06:41:48;5.53;;;3.20;;
46391;SDS011;32098;49.448;7.904;2023-04-03T06:44:18;3.43;;;2.80;;
46391;SDS011;32098;49.448;7.904;2023-04-03T06:46:44;4.70;;;2.63;;
46391;SDS011;32098;49.448;7.904;2023-04-03T06:49:13;5.00;;;2.60;;
46391;SDS011;32098;49.448;7.904;2023-04-03T06:51:39;7.03;;;2.63;;
46391;SDS011;32098;49.448;7.904;2023-04-03T06:54:06;4.97;;;2.63;;
46391;SDS011;32098;49.448;7.904;2023-04-03T06:56:34;5.00;;;2.60;;
46391;SDS011;32098;49.448;7.904;2023-04-03T06:59:01;4.93;;;2.40;;
46391;SDS011;32098;49.448;7.904;2023-04-03T07:01:31;3.77;;;2.27;;
46391;SDS011;32098;49.448;7.904;2023-04-03T07:03:57;4.93;;;2.77;;
46391;SDS011;32098;49.448;7.904;2023-04-03T07:06:24;3.73;;;2.23;;
46391;SDS011;32098;49.448;7.904;2023-04-03T07:08:53;4.40;;;2.50;;
46391;SDS011;32098;49.448;7.904;2023-04-03T07:11:20;5.87;;;2.80;;
46391;SDS011;32098;49.448;7.904;2023-04-03T07:13:47;5.20;;;2.30;;
46391;SDS011;32098;49.448;7.904;2023-04-03T07:16:13;6.07;;;2.20;;
46391;SDS011;32098;49.448;7.904;2023-04-03T07:18:40;2.97;;;2.30;;
46391;SDS011;32098;49.448;7.904;2023-04-03T07:21:07;6.07;;;2.90;;
46391;SDS011;32098;49.448;7.904;2023-04-03T07:23:35;4.50;;;2.57;;
46391;SDS011;32098;49.448;7.904;2023-04-03T07:26:01;6.40;;;2.30;;
46391;SDS011;32098;49.448;7.904;2023-04-03T07:28:28;6.00;;;2.50;;
46391;SDS011;32098;49.448;7.904;2023-04-03T07:31:00;7.57;;;2.47;;
46391;SDS011;32098;49.448;7.904;2023-04-03T07:33:29;2.57;;;2.30;;
46391;SDS011;32098;49.448;7.904;2023-04-03T07:35:57;4.23;;;2.33;;
46391;SDS011;32098;49.448;7.904;2023-04-03T07:38:27;5.00;;;2.30;;
46391;SDS011;32098;49.448;7.904;2023-04-03T07:40:54;4.63;;;2.50;;
46391;SDS011;32098;49.448;7.904;2023-04-03T07:43:21;4.60;;;2.83;;
46391;SDS011;32098;49.448;7.904;2023-04-03T07:45:50;4.93;;;3.00;;
46391;SDS011;32098;49.448;7.904;2023-04-03T07:48:18;6.07;;;3.10;;
46391;SDS011;32098;49.448;7.904;2023-04-03T07:50:46;3.83;;;2.70;;
46391;SDS011;32098;49.448;7.904;2023-04-03T07:53:13;6.83;;;3.03;;
46391;SDS011;32098;49.448;7.904;2023-04-03T07:55:40;5.30;;;2.73;;
46391;SDS011;32098;49.448;7.904;2023-04-03T07:58:11;3.53;;;2.20;;
46391;SDS011;32098;49.448;7.904;2023-04-03T08:00:42;5.83;;;3.00;;
46391;SDS011;32098;49.448;7.904;2023-04-03T08:03:09;4.83;;;2.57;;
46391;SDS011;32098;49.448;7.904;2023-04-03T08:05:38;3.87;;;2.37;;
46391;SDS011;32098;49.448;7.904;2023-04-03T08:08:09;6.97;;;2.70;;
46391;SDS011;32098;49.448;7.904;2023-04-03T08:10:38;4.03;;;2.50;;
46391;SDS011;32098;49.448;7.904;2023-04-03T08:13:05;3.80;;;2.47;;
46391;SDS011;32098;49.448;7.904;2023-04-03T08:15:32;7.90;;;3.07;;
46391;SDS011;32098;49.448;7.904;2023-04-03T08:17:59;4.37;;;2.37;;
46391;SDS011;32098;49.448;7.904;2023-04-03T08:20:27;4.33;;;2.60;;
46391;SDS011;32098;49.448;7.904;2023-04-03T08:22:54;4.93;;;2.50;;
46391;SDS011;32098;49.448;7.904;2023-04-03T08:25:21;6.40;;;2.90;;
46391;SDS011;32098;49.448;7.904;2023-04-03T08:27:48;5.20;;;2.60;;
46391;SDS011;32098;49.448;7.904;2023-04-03T08:30:14;4.30;;;2.70;;
46391;SDS011;32098;49.448;7.904;2023-04-03T08:32:41;6.37;;;2.67;;
46391;SDS011;32098;49.448;7.904;2023-04-03T08:35:09;5.73;;;2.77;;
46391;SDS011;32098;49.448;7.904;2023-04-03T08:37:37;4.67;;;2.50;;
46391;SDS011;32098;49.448;7.904;2023-04-03T08:40:05;5.57;;;2.63;;
46391;SDS011;32098;49.448;7.904;2023-04-03T08:50:15;5.00;;;2.80;;
46391;SDS011;32098;49.448;7.904;2023-04-03T08:52:48;3.50;;;2.70;;
46391;SDS011;32098;49.448;7.904;2023-04-03T08:57:51;6.90;;;2.90;;
46391;SDS011;32098;49.448;7.904;2023-04-03T09:00:37;5.30;;;2.77;;
46391;SDS011;32098;49.448;7.904;2023-04-03T09:03:12;4.87;;;2.63;;
46391;SDS011;32098;49.448;7.904;2023-04-03T09:05:43;3.37;;;2.30;;
46391;SDS011;32098;49.448;7.904;2023-04-03T09:08:21;8.20;;;3.23;;
46391;SDS011;32098;49.448;7.904;2023-04-03T09:11:41;4.50;;;3.00;;
46391;SDS011;32098;49.448;7.904;2023-04-03T09:14:33;7.90;;;2.70;;
46391;SDS011;32098;49.448;7.904;2023-04-03T09:16:56;6.93;;;2.20;;
46391;SDS011;32098;49.448;7.904;2023-04-03T09:22:46;4.33;;;2.80;;
46391;SDS011;32098;49.448;7.904;2023-04-03T09:24:58;3.57;;;2.67;;
46391;SDS011;32098;49.448;7.904;2023-04-03T09:27:26;4.83;;;2.60;;
46391;SDS011;32098;49.448;7.904;2023-04-03T09:29:56;4.57;;;2.70;;
46391;SDS011;32098;49.448;7.904;2023-04-03T09:32:31;1.73;;;1.63;;
46391;SDS011;32098;49.448;7.904;2023-04-03T09:35:01;4.13;;;2.17;;
46391;SDS011;32098;49.448;7.904;2023-04-03T09:37:48;3.57;;;1.90;;
46391;SDS011;32098;49.448;7.904;2023-04-03T09:42:56;4.03;;;2.20;;
46391;SDS011;32098;49.448;7.904;2023-04-03T09:45:28;3.40;;;2.30;;
46391;SDS011;32098;49.448;7.904;2023-04-03T09:48:04;3.10;;;1.90;;
46391;SDS011;32098;49.448;7.904;2023-04-03T09:50:36;3.83;;;2.20;;
46391;SDS011;32098;49.448;7.904;2023-04-03T09:53:04;5.40;;;2.37;;
46391;SDS011;32098;49.448;7.904;2023-04-03T09:55:40;4.37;;;2.30;;
46391;SDS011;32098;49.448;7.904;2023-04-03T09:58:27;3.57;;;1.83;;
46391;SDS011;32098;49.448;7.904;2023-04-03T10:01:34;4.97;;;2.27;;
46391;SDS011;32098;49.448;7.904;2023-04-03T10:04:12;5.47;;;2.13;;
46391;SDS011;32098;49.448;7.904;2023-04-03T10:09:23;2.63;;;1.70;;
46391;SDS011;32098;49.448;7.904;2023-04-03T10:12:08;4.13;;;1.90;;
46391;SDS011;32098;49.448;7.904;2023-04-03T10:14:39;5.07;;;1.90;;
46391;SDS011;32098;49.448;7.904;2023-04-03T10:20:26;4.20;;;1.60;;
46391;SDS011;32098;49.448;7.904;2023-04-03T10:23:02;2.67;;;1.80;;
46391;SDS011;32098;49.448;7.904;2023-04-03T10:25:43;2.57;;;1.80;;
46391;SDS011;32098;49.448;7.904;2023-04-03T10:28:36;3.57;;;1.80;;
46391;SDS011;32098;49.448;7.904;2023-04-03T10:31:25;3.57;;;1.90;;
46391;SDS011;32098;49.448;7.904;2023-04-03T10:36:50;1.70;;;1.60;;
46391;SDS011;32098;49.448;7.904;2023-04-03T10:39:57;1.80;;;1.60;;
46391;SDS011;32098;49.448;7.904;2023-04-03T10:48:02;4.37;;;1.80;;
46391;SDS011;32098;49.448;7.904;2023-04-03T10:56:03;3.00;;;1.60;;
46391;SDS011;32098;49.448;7.904;2023-04-03T10:58:43;3.53;;;1.93;;
46391;SDS011;32098;49.448;7.904;2023-04-03T11:01:13;5.43;;;1.90;;
46391;SDS011;32098;49.448;7.904;2023-04-03T11:03:46;4.93;;;2.17;;
46391;SDS011;32098;49.448;7.904;2023-04-03T11:06:19;3.77;;;2.20;;
46391;SDS011;32098;49.448;7.904;2023-04-03T11:08:51;3.23;;;1.90;;
46391;SDS011;32098;49.448;7.904;2023-04-03T11:11:36;3.80;;;2.00;;
46391;SDS011;32098;49.448;7.904;2023-04-03T11:14:29;2.97;;;1.90;;
46391;SDS011;32098;49.448;7.904;2023-04-03T11:17:04;2.27;;;1.60;;
46391;SDS011;32098;49.448;7.904;2023-04-03T11:22:33;3.07;;;1.47;;
46391;SDS011;32098;49.448;7.904;2023-04-03T11:25:05;2.07;;;1.47;;
46391;SDS011;32098;49.448;7.904;2023-04-03T11:27:45;2.90;;;1.37;;
46391;SDS011;32098;49.448;7.904;2023-04-03T11:30:33;3.23;;;1.70;;
46391;SDS011;32098;49.448;7.904;2023-04-03T11:33:31;3.87;;;1.50;;
46391;SDS011;32098;49.448;7.904;2023-04-03T11:36:19;2.33;;;1.57;;
46391;SDS011;32098;49.448;7.904;2023-04-03T11:38:57;2.00;;;1.50;;
46391;SDS011;32098;49.448;7.904;2023-04-03T11:41:28;2.90;;;1.30;;
46391;SDS011;32098;49.448;7.904;2023-04-03T11:44:03;3.13;;;1.53;;
46391;SDS011;32098;49.448;7.904;2023-04-03T11:46:48;4.50;;;1.70;;
46391;SDS011;32098;49.448;7.904;2023-04-03T12:08:43;3.00;;;1.77;;
46391;SDS011;32098;49.448;7.904;2023-04-03T12:13:43;2.57;;;1.57;;
46391;SDS011;32098;49.448;7.904;2023-04-03T12:16:33;2.40;;;1.40;;
46391;SDS011;32098;49.448;7.904;2023-04-03T12:31:58;2.40;;;1.60;;
46391;SDS011;32098;49.448;7.904;2023-04-03T12:43:09;3.80;;;1.80;;
46391;SDS011;32098;49.448;7.904;2023-04-03T12:45:44;2.63;;;1.60;;
46391;SDS011;32098;49.448;7.904;2023-04-03T12:48:17;3.33;;;1.50;;
46391;SDS011;32098;49.448;7.904;2023-04-03T12:50:48;2.73;;;1.83;;
46391;SDS011;32098;49.448;7.904;2023-04-03T12:53:20;3.17;;;1.80;;
46391;SDS011;32098;49.448;7.904;2023-04-03T12:55:57;3.03;;;1.67;;
46391;SDS011;32098;49.448;7.904;2023-04-03T12:58:44;3.23;;;1.60;;
46391;SDS011;32098;49.448;7.904;2023-04-03T13:01:12;3.00;;;1.90;;
46391;SDS011;32098;49.448;7.904;2023-04-03T13:03:43;1.67;;;1.57;;
46391;SDS011;32098;49.448;7.904;2023-04-03T13:06:16;2.00;;;1.60;;
46391;SDS011;32098;49.448;7.904;2023-04-03T13:08:50;2.67;;;1.60;;
46391;SDS011;32098;49.448;7.904;2023-04-03T13:11:26;4.37;;;2.07;;
46391;SDS011;32098;49.448;7.904;2023-04-03T13:14:12;4.13;;;1.73;;
46391;SDS011;32098;49.448;7.904;2023-04-03T13:16:42;3.17;;;1.50;;
46391;SDS011;32098;49.448;7.904;2023-04-03T13:19:23;3.43;;;1.63;;
46391;SDS011;32098;49.448;7.904;2023-04-03T13:21:57;4.53;;;1.60;;
46391;SDS011;32098;49.448;7.904;2023-04-03T13:24:29;3.80;;;1.70;;
46391;SDS011;32098;49.448;7.904;2023-04-03T13:26:58;2.40;;;1.57;;
46391;SDS011;32098;49.448;7.904;2023-04-03T13:29:30;2.80;;;1.73;;
46391;SDS011;32098;49.448;7.904;2023-04-03T13:31:59;3.63;;;1.70;;
46391;SDS011;32098;49.448;7.904;2023-04-03T13:34:29;2.17;;;1.70;;
46391;SDS011;32098;49.448;7.904;2023-04-03T13:37:03;5.00;;;1.63;;
46391;SDS011;32098;49.448;7.904;2023-04-03T13:39:34;4.27;;;1.67;;
46391;SDS011;32098;49.448;7.904;2023-04-03T13:42:25;3.37;;;1.70;;
46391;SDS011;32098;49.448;7.904;2023-04-03T13:47:44;2.10;;;1.50;;
46391;SDS011;32098;49.448;7.904;2023-04-03T13:55:21;6.10;;;1.63;;
46391;SDS011;32098;49.448;7.904;2023-04-03T13:57:59;3.37;;;1.33;;
46391;SDS011;32098;49.448;7.904;2023-04-03T14:00:48;2.73;;;1.60;;
46391;SDS011;32098;49.448;7.904;2023-04-03T14:05:56;4.50;;;1.70;;
46391;SDS011;32098;49.448;7.904;2023-04-03T14:08:23;3.17;;;1.70;;
46391;SDS011;32098;49.448;7.904;2023-04-03T14:11:11;3.37;;;1.77;;
46391;SDS011;32098;49.448;7.904;2023-04-03T14:13:42;6.00;;;1.87;;
46391;SDS011;32098;49.448;7.904;2023-04-03T14:16:13;3.60;;;1.47;;
46391;SDS011;32098;49.448;7.904;2023-04-03T14:18:44;2.83;;;1.67;;
46391;SDS011;32098;49.448;7.904;2023-04-03T14:21:14;3.43;;;1.73;;
46391;SDS011;32098;49.448;7.904;2023-04-03T14:23:42;4.13;;;1.60;;
46391;SDS011;32098;49.448;7.904;2023-04-03T14:26:13;3.57;;;1.63;;
46391;SDS011;32098;49.448;7.904;2023-04-03T14:28:46;1.63;;;1.47;;
46391;SDS011;32098;49.448;7.904;2023-04-03T14:31:16;2.17;;;1.60;;
46391;SDS011;32098;49.448;7.904;2023-04-03T14:33:44;3.93;;;1.20;;
46391;SDS011;32098;49.448;7.904;2023-04-03T14:36:15;2.27;;;1.60;;
46391;SDS011;32098;49.448;7.904;2023-04-03T14:38:42;5.60;;;1.67;;
46391;SDS011;32098;49.448;7.904;2023-04-03T14:41:12;3.77;;;2.03;;
46391;SDS011;32098;49.448;7.904;2023-04-03T14:43:43;3.30;;;1.50;;
46391;SDS011;32098;49.448;7.904;2023-04-03T14:46:12;2.83;;;1.83;;
46391;SDS011;32098;49.448;7.904;2023-04-03T14:48:41;2.77;;;2.10;;
46391;SDS011;32098;49.448;7.904;2023-04-03T14:51:12;5.00;;;2.13;;
46391;SDS011;32098;49.448;7.904;2023-04-03T14:53:40;3.70;;;2.20;;
46391;SDS011;32098;49.448;7.904;2023-04-03T14:56:12;3.20;;;1.70;;
46391;SDS011;32098;49.448;7.904;2023-04-03T14:58:54;2.73;;;1.57;;
46391;SDS011;32098;49.448;7.904;2023-04-03T15:01:23;3.00;;;1.60;;
46391;SDS011;32098;49.448;7.904;2023-04-03T15:03:50;4.33;;;1.70;;
46391;SDS011;32098;49.448;7.904;2023-04-03T15:06:17;3.30;;;1.60;;
46391;SDS011;32098;49.448;7.904;2023-04-03T15:08:43;2.83;;;1.80;;
46391;SDS011;32098;49.448;7.904;2023-04-03T15:11:13;3.30;;;2.00;;
46391;SDS011;32098;49.448;7.904;2023-04-03T15:13:40;2.30;;;2.00;;
46391;SDS011;32098;49.448;7.904;2023-04-03T15:16:25;2.73;;;1.70;;
46391;SDS011;32098;49.448;7.904;2023-04-03T15:18:52;3.83;;;2.03;;
46391;SDS011;32098;49.448;7.904;2023-04-03T15:21:19;5.30;;;1.70;;
46391;SDS011;32098;49.448;7.904;2023-04-03T15:23:46;2.47;;;1.73;;
46391;SDS011;32098;49.448;7.904;2023-04-03T15:26:13;3.83;;;1.97;;
46391;SDS011;32098;49.448;7.904;2023-04-03T15:28:41;3.60;;;1.60;;
46391;SDS011;32098;49.448;7.904;2023-04-03T15:31:08;3.30;;;1.90;;
46391;SDS011;32098;49.448;7.904;2023-04-03T15:33:35;3.80;;;1.80;;
46391;SDS011;32098;49.448;7.904;2023-04-03T15:36:02;3.90;;;1.57;;
46391;SDS011;32098;49.448;7.904;2023-04-03T15:38:47;2.10;;;1.47;;
46391;SDS011;32098;49.448;7.904;2023-04-03T15:41:14;4.40;;;1.90;;
46391;SDS011;32098;49.448;7.904;2023-04-03T15:43:41;3.37;;;1.87;;
46391;SDS011;32098;49.448;7.904;2023-04-03T15:46:08;2.23;;;1.50;;
46391;SDS011;32098;49.448;7.904;2023-04-03T15:48:35;2.20;;;2.00;;
46391;SDS011;32098;49.448;7.904;2023-04-03T15:51:03;2.57;;;1.80;;
46391;SDS011;32098;49.448;7.904;2023-04-03T15:53:29;2.77;;;1.87;;
46391;SDS011;32098;49.448;7.904;2023-04-03T15:55:56;2.80;;;1.47;;
46391;SDS011;32098;49.448;7.904;2023-04-03T15:58:22;3.47;;;1.77;;
46391;SDS011;32098;49.448;7.904;2023-04-03T16:00:49;3.10;;;1.73;;
46391;SDS011;32098;49.448;7.904;2023-04-03T16:03:16;3.57;;;1.77;;
46391;SDS011;32098;49.448;7.904;2023-04-03T16:05:45;3.60;;;1.90;;
46391;SDS011;32098;49.448;7.904;2023-04-03T16:08:12;3.00;;;1.90;;
46391;SDS011;32098;49.448;7.904;2023-04-03T16:10:39;2.60;;;1.87;;
46391;SDS011;32098;49.448;7.904;2023-04-03T16:13:07;3.57;;;1.77;;
46391;SDS011;32098;49.448;7.904;2023-04-03T16:15:34;4.87;;;1.70;;
46391;SDS011;32098;49.448;7.904;2023-04-03T16:18:01;3.97;;;1.97;;
46391;SDS011;32098;49.448;7.904;2023-04-03T16:20:28;3.83;;;1.60;;
46391;SDS011;32098;49.448;7.904;2023-04-03T16:22:56;2.80;;;1.77;;
46391;SDS011;32098;49.448;7.904;2023-04-03T16:25:25;3.17;;;1.80;;
46391;SDS011;32098;49.448;7.904;2023-04-03T16:27:52;1.70;;;1.60;;
46391;SDS011;32098;49.448;7.904;2023-04-03T16:30:19;4.10;;;1.77;;
46391;SDS011;32098;49.448;7.904;2023-04-03T16:32:46;2.43;;;1.80;;
46391;SDS011;32098;49.448;7.904;2023-04-03T16:35:12;1.93;;;1.67;;
46391;SDS011;32098;49.448;7.904;2023-04-03T16:37:39;2.13;;;1.50;;
46391;SDS011;32098;49.448;7.904;2023-04-03T16:40:06;1.70;;;1.60;;
46391;SDS011;32098;49.448;7.904;2023-04-03T16:42:34;3.07;;;1.50;;
46391;SDS011;32098;49.448;7.904;2023-04-03T16:45:03;4.40;;;1.50;;
46391;SDS011;32098;49.448;7.904;2023-04-03T16:47:32;2.63;;;1.90;;